Time;durP1;ratioP1;P1;durP2;ratioP2;P2;SDS_P1;SDS_P2;PMS_P1;PMS_P2;Temp;Humidity;BMP_temperature;BMP_pressure;BME280_temperature;BME280_humidity;BME280_pressure;Samples;Min_cycle;Max_cycle;Signal;HPM_P1;HPM_P2
2024/01/18 00:01:15;;;;;;;22.03;16.57;;;;;;;4.94;100.00;93040.78;7403176;19;20368;-86
2024/01/18 00:04:00;;;;;;;18.60;15.70;;;;;;;4.80;100.00;93043.84;7400858;19;20403;-86
2024/01/18 00:06:44;;;;;;;16.73;14.93;;;;;;;3.77;100.00;92907.59;7402321;19;20682;-85
2024/01/18 00:09:27;;;;;;;16.70;14.83;;;;;;;3.70;100.00;92922.22;7402828;19;20697;-85
2024/01/18 00:12:12;;;;;;;17.27;14.43;;;;;;;4.07;100.00;93018.63;7402045;19;20387;-86
2024/01/18 00:14:55;;;;;;;17.33;15.00;;;;;;;4.26;100.00;93029.06;7400394;19;20959;-86
2024/01/18 00:17:38;;;;;;;19.90;16.73;;;;;;;4.38;100.00;93041.91;7402247;19;20375;-86
2024/01/18 00:20:24;;;;;;;17.90;15.53;;;;;;;3.72;100.00;92918.22;7401006;19;20408;-85
2024/01/18 00:23:07;;;;;;;20.27;15.17;;;;;;;4.46;100.00;93043.53;7400856;19;20400;-86
2024/01/18 00:25:51;;;;;;;17.77;13.63;;;;;;;3.57;100.00;92924.22;7402341;19;20389;-86
2024/01/18 00:28:35;;;;;;;18.20;14.17;;;;;;;4.32;100.00;93048.44;7402261;19;20370;-86
2024/01/18 00:31:18;;;;;;;19.50;15.77;;;;;;;3.03;100.00;92843.78;7402275;19;20387;-86
2024/01/18 00:34:02;;;;;;;23.00;14.83;;;;;;;3.07;100.00;92870.53;7399508;19;20424;-85
2024/01/18 00:36:46;;;;;;;21.00;13.97;;;;;;;3.12;100.00;92858.06;7401592;19;20376;-85
2024/01/18 00:39:30;;;;;;;15.90;13.87;;;;;;;3.50;100.00;92952.53;7401500;19;20869;-86
2024/01/18 00:42:13;;;;;;;16.80;13.20;;;;;;;4.30;100.00;93089.56;7401357;19;20387;-85
2024/01/18 00:44:57;;;;;;;17.40;13.60;;;;;;;3.63;100.00;92946.19;7401799;19;20413;-86
2024/01/18 00:47:40;;;;;;;20.00;14.87;;;;;;;3.67;100.00;92943.66;7399459;19;20385;-85
2024/01/18 00:50:24;;;;;;;19.40;15.00;;;;;;;4.54;100.00;93083.41;7401045;19;20367;-86
2024/01/18 00:53:08;;;;;;;16.43;13.53;;;;;;;4.41;100.00;93072.38;7399770;19;20393;-85
2024/01/18 00:55:52;;;;;;;20.87;15.07;;;;;;;3.69;100.00;92960.38;7401291;19;20368;-85
2024/01/18 00:58:36;;;;;;;17.73;14.77;;;;;;;3.52;100.00;92947.78;7400722;19;20371;-86
2024/01/18 01:01:20;;;;;;;16.50;13.30;;;;;;;4.38;100.00;93085.28;7400765;19;20361;-86
2024/01/18 01:04:04;;;;;;;17.53;13.67;;;;;;;3.24;100.00;92932.34;7399061;19;20409;-86
2024/01/18 01:07:03;;;;;;;16.90;12.93;;;;;;;3.25;100.00;92967.53;7400148;19;20373;-86
2024/01/18 01:09:46;;;;;;;18.90;14.20;;;;;;;3.21;100.00;92962.25;7400751;19;20377;-86
2024/01/18 01:12:30;;;;;;;21.20;13.83;;;;;;;3.34;100.00;92990.69;7399667;19;20912;-85
2024/01/18 01:15:14;;;;;;;19.40;14.27;;;;;;;3.24;100.00;92978.97;7400820;19;20696;-86
2024/01/18 01:17:57;;;;;;;21.23;14.33;;;;;;;4.25;100.00;93105.41;7400224;19;20395;-86
2024/01/18 01:20:41;;;;;;;15.80;12.40;;;;;;;3.18;100.00;92929.25;7398829;19;20405;-86
2024/01/18 01:23:25;;;;;;;14.70;11.80;;;;;;;4.38;100.00;93112.00;7398899;19;20412;-86
2024/01/18 01:26:09;;;;;;;14.47;11.63;;;;;;;3.63;100.00;92995.44;7399379;19;20476;-86
2024/01/18 01:28:52;;;;;;;15.57;11.83;;;;;;;4.20;100.00;93139.38;7399809;19;20864;-83
2024/01/18 01:31:36;;;;;;;13.93;11.53;;;;;;;3.61;100.00;93013.16;7399993;19;20837;-86
2024/01/18 01:34:19;;;;;;;12.23;9.40;;;;;;;4.83;100.00;93133.31;7397747;19;20416;-86
2024/01/18 01:37:04;;;;;;;12.03;10.73;;;;;;;4.06;100.00;93002.31;7399957;19;20377;-86
2024/01/18 01:39:47;;;;;;;15.97;14.23;;;;;;;4.39;100.00;93011.50;7399492;19;20741;-86
2024/01/18 01:42:31;;;;;;;11.13;9.90;;;;;;;4.52;100.00;93018.09;7399210;19;20420;-86
2024/01/18 01:45:15;;;;;;;13.20;9.20;;;;;;;4.99;100.00;93009.31;7399313;19;20383;-86
2024/01/18 01:47:59;;;;;;;45.03;13.60;;;;;;;4.83;100.00;93058.00;7397924;19;20381;-86
2024/01/18 01:50:43;;;;;;;17.53;10.20;;;;;;;4.46;100.00;93016.84;7399101;19;20384;-86
2024/01/18 01:53:27;;;;;;;9.90;8.30;;;;;;;5.01;100.00;93046.09;7397888;19;20403;-86
2024/01/18 01:56:11;;;;;;;10.97;9.60;;;;;;;5.25;100.00;93025.00;7399164;19;20377;-86
2024/01/18 01:58:55;;;;;;;13.77;8.90;;;;;;;6.06;100.00;93118.47;7398818;19;20381;-86
2024/01/18 02:01:42;;;;;;;12.03;9.10;;;;;;;6.17;100.00;93144.69;7398868;19;20837;-86
2024/01/18 02:04:27;;;;;;;76.93;16.30;;;;;;;4.85;100.00;92977.88;7399005;19;20365;-86
2024/01/18 02:07:13;;;;;;;135.57;20.13;;;;;;;4.79;100.00;93026.78;7397930;19;20376;-86
2024/01/18 02:09:57;;;;;;;218.97;27.60;;;;;;;4.60;100.00;93017.13;7399330;19;20447;-85
2024/01/18 02:12:42;;;;;;;90.50;17.63;;;;;;;5.38;100.00;93134.78;7397812;19;20403;-86
2024/01/18 02:15:27;;;;;;;107.30;19.57;;;;;;;5.29;100.00;93108.22;7398872;19;20368;-86
2024/01/18 02:18:11;;;;;;;199.37;27.50;;;;;;;4.59;100.00;93023.41;7398318;19;20452;-87
2024/01/18 02:20:55;;;;;;;42.83;15.37;;;;;;;4.38;100.00;92951.06;7396640;19;20432;-86
2024/01/18 02:23:41;;;;;;;51.83;11.40;;;;;;;4.80;100.00;93007.50;7397385;19;20792;-86
2024/01/18 02:26:25;;;;;;;31.27;10.60;;;;;;;5.47;100.00;93132.72;7397671;19;20373;-86
2024/01/18 02:29:09;;;;;;;71.53;14.77;;;;;;;4.31;100.00;92965.75;7398311;19;20675;-86
2024/01/18 02:31:53;;;;;;;28.37;9.83;;;;;;;4.01;100.00;92927.34;7397860;19;20376;-86
2024/01/18 02:34:39;;;;;;;88.70;17.43;;;;;;;4.13;100.00;92931.66;7397875;19;20893;-86
2024/01/18 02:37:23;;;;;;;30.23;9.07;;;;;;;4.20;100.00;92991.47;7396490;19;20364;-87
2024/01/18 02:40:09;;;;;;;15.33;8.23;;;;;;;3.96;100.00;93030.59;7397654;19;20477;-86
2024/01/18 02:42:53;;;;;;;25.53;9.57;;;;;;;3.67;100.00;92996.25;7396712;19;20400;-86
2024/01/18 02:45:38;;;;;;;9.53;7.80;;;;;;;4.40;100.00;93117.59;7397382;19;20447;-86
2024/01/18 02:48:22;;;;;;;8.80;7.30;;;;;;;4.30;100.00;93094.00;7397838;19;20436;-86
2024/01/18 02:51:05;;;;;;;10.07;8.40;;;;;;;3.72;100.00;93008.22;7397807;19;20692;-86
2024/01/18 02:53:49;;;;;;;11.10;8.00;;;;;;;3.76;100.00;93014.25;7396178;19;20415;-87
2024/01/18 02:56:33;;;;;;;9.60;7.20;;;;;;;3.83;100.00;93020.34;7397200;19;20371;-86
2024/01/18 02:59:17;;;;;;;22.83;9.63;;;;;;;3.78;100.00;93028.38;7397786;19;20411;-87
2024/01/18 03:02:01;;;;;;;20.73;10.50;;;;;;;2.93;100.00;92933.09;7397333;19;20683;-87
2024/01/18 03:04:45;;;;;;;14.40;9.30;;;;;;;3.59;100.00;93029.06;7397056;19;20921;-87
2024/01/18 03:07:28;;;;;;;11.77;9.43;;;;;;;4.49;100.00;93149.31;7395624;19;20376;-87
2024/01/18 03:10:12;;;;;;;10.57;8.90;;;;;;;3.66;100.00;93019.94;7397699;19;20397;-86
2024/01/18 03:12:56;;;;;;;10.30;7.87;;;;;;;4.31;100.00;93065.09;7396395;19;20858;-87
2024/01/18 03:15:40;;;;;;;9.73;7.70;;;;;;;5.47;100.00;93153.53;7397754;19;20365;-87
2024/01/18 03:18:24;;;;;;;10.30;7.13;;;;;;;5.61;100.00;93130.38;7398125;19;20406;-87
2024/01/18 03:21:29;;;;;;;15.37;8.20;;;;;;;5.95;100.00;93172.94;7395881;19;20495;-87
2024/01/18 03:24:15;;;;;;;8.77;7.20;;;;;;;6.32;100.00;93171.69;7396285;19;20415;-86
2024/01/18 03:27:04;;;;;;;9.27;7.23;;;;;;;5.61;100.00;93036.00;7396931;19;20376;-87
2024/01/18 03:29:50;;;;;;;7.90;6.60;;;;;;;5.22;100.00;93019.75;7397855;19;20870;-86
2024/01/18 03:32:53;;;;;;;8.17;6.57;;;;;;;5.44;100.00;93047.63;7396799;19;20412;-86
2024/01/18 03:35:59;;;;;;;8.60;7.00;;;;;;;6.40;100.00;93181.13;7397415;19;20868;-87
2024/01/18 03:38:45;;;;;;;10.00;6.90;;;;;;;5.04;100.00;92957.81;7396901;19;20395;-86
2024/01/18 03:41:30;;;;;;;11.03;7.83;;;;;;;5.49;100.00;93051.78;7396735;19;20372;-87
2024/01/18 03:44:16;;;;;;;9.00;7.30;;;;;;;5.06;100.00;92986.06;7393797;19;20396;-87
2024/01/18 03:47:00;;;;;;;9.53;6.90;;;;;;;5.81;100.00;93112.88;7395175;19;20452;-86
2024/01/18 03:49:44;;;;;;;8.90;6.23;;;;;;;6.26;100.00;93186.88;7398437;19;20387;-87
2024/01/18 03:52:28;;;;;;;5.33;4.83;;;;;;;6.30;100.00;93185.06;7402467;19;20890;-87
2024/01/18 03:55:12;;;;;;;5.70;4.67;;;;;;;6.08;100.00;93176.16;7403072;19;20940;-87
2024/01/18 03:57:57;;;;;;;5.10;4.13;;;;;;;6.23;100.00;93193.50;7403030;19;20870;-87
2024/01/18 04:00:41;;;;;;;5.20;4.43;;;;;;;6.02;100.00;93156.72;7402854;19;20863;-87
2024/01/18 04:03:25;;;;;;;5.60;4.03;;;;;;;5.61;100.00;93070.56;7401555;19;20422;-87
2024/01/18 04:06:11;;;;;;;3.50;2.83;;;;;;;5.59;100.00;93083.16;7402431;19;20365;-87
2024/01/18 04:08:55;;;;;;;3.67;3.37;;;;;;;6.31;100.00;93204.78;7402959;19;20368;-87
2024/01/18 04:11:39;;;;;;;3.80;2.90;;;;;;;5.15;100.00;93053.38;7402410;19;20726;-87
2024/01/18 04:14:23;;;;;;;3.07;2.70;;;;;;;5.62;100.00;93126.69;7402465;19;20380;-87
2024/01/18 04:17:06;;;;;;;3.40;3.10;;;;;;;6.12;100.00;93204.84;7402312;19;20379;-87
2024/01/18 04:19:50;;;;;;;3.20;2.90;;;;;;;5.10;100.00;93046.63;7402282;19;20441;-87
2024/01/18 04:22:34;;;;;;;3.40;3.07;;;;;;;6.16;100.00;93192.66;7401673;19;20408;-87
2024/01/18 04:25:18;;;;;;;2.77;2.53;;;;;;;6.05;100.00;93183.91;7402542;19;20400;-87
2024/01/18 04:28:01;;;;;;;4.60;4.20;;;;;;;6.19;100.00;93177.06;7400224;19;20394;-87
2024/01/18 04:30:45;;;;;;;4.60;4.20;;;;;;;5.23;100.00;93071.38;7401864;19;20865;-87
2024/01/18 04:33:29;;;;;;;4.67;4.20;;;;;;;5.51;100.00;93084.13;7400819;19;20433;-87
2024/01/18 04:36:12;;;;;;;3.70;3.40;;;;;;;5.48;100.00;93087.44;7401629;19;20369;-88
2024/01/18 04:38:56;;;;;;;3.50;3.30;;;;;;;5.32;100.00;93084.16;7401537;19;20380;-87
2024/01/18 04:41:40;;;;;;;3.00;2.80;;;;;;;4.37;100.00;92956.59;7401890;19;20373;-88
2024/01/18 04:44:24;;;;;;;4.30;3.70;;;;;;;5.67;100.00;93143.84;7401469;19;20697;-87
2024/01/18 04:47:08;;;;;;;3.70;3.40;;;;;;;5.47;100.00;93087.78;7400267;19;20436;-87
2024/01/18 04:49:52;;;;;;;5.43;5.00;;;;;;;5.36;100.00;93096.13;7401135;19;20361;-88
2024/01/18 04:52:36;;;;;;;3.93;3.63;;;;;;;4.67;100.00;93009.47;7400378;19;20392;-87
2024/01/18 04:55:20;;;;;;;4.20;3.80;;;;;;;5.38;100.00;93101.72;7401138;19;20858;-88
2024/01/18 04:58:04;;;;;;;3.67;2.97;;;;;;;4.85;100.00;92994.22;7401409;19;20677;-87
2024/01/18 05:00:48;;;;;;;3.17;2.93;;;;;;;5.14;100.00;93041.50;7400329;19;20403;-88
2024/01/18 05:03:32;;;;;;;2.10;1.90;;;;;;;6.34;100.00;93232.00;7399691;19;20400;-87
2024/01/18 05:06:15;;;;;;;2.20;2.10;;;;;;;5.51;100.00;93123.13;7400455;19;20440;-88
2024/01/18 05:08:59;;;;;;;3.30;2.97;;;;;;;5.56;100.00;93148.09;7401479;19;20389;-87
2024/01/18 05:11:43;;;;;;;3.57;3.27;;;;;;;5.36;100.00;93121.38;7400797;19;20372;-88
2024/01/18 05:14:27;;;;;;;3.57;3.27;;;;;;;5.20;100.00;93113.66;7400493;19;20365;-88
2024/01/18 05:17:12;;;;;;;3.00;2.70;;;;;;;5.87;100.00;93226.00;7400322;19;20381;-88
2024/01/18 05:19:56;;;;;;;16.47;4.50;;;;;;;4.99;100.00;93097.66;7400278;19;20417;-88
2024/01/18 05:22:40;;;;;;;4.57;4.10;;;;;;;5.88;100.00;93235.31;7399508;19;20412;-87
2024/01/18 05:25:24;;;;;;;4.70;4.07;;;;;;;5.70;100.00;93231.59;7399891;19;20382;-87
2024/01/18 05:28:07;;;;;;;4.77;3.60;;;;;;;4.95;100.00;93126.16;7398915;19;20456;-88
2024/01/18 05:30:51;;;;;;;3.83;3.30;;;;;;;4.75;100.00;93120.19;7399657;19;20383;-88
2024/01/18 05:33:35;;;;;;;48.53;7.90;;;;;;;5.04;100.00;93189.09;7398599;19;20474;-87
2024/01/18 05:36:18;;;;;;;41.57;6.90;;;;;;;5.20;100.00;93230.63;7399697;19;20376;-87
2024/01/18 05:39:03;;;;;;;4.60;3.13;;;;;;;5.15;100.00;93222.31;7399504;19;20850;-88
2024/01/18 05:41:46;;;;;;;9.23;3.90;;;;;;;5.05;100.00;93210.63;7399991;19;20373;-87
2024/01/18 05:44:31;;;;;;;2.77;2.57;;;;;;;4.60;100.00;93139.16;7399737;19;20680;-88
2024/01/18 05:47:14;;;;;;;80.33;11.50;;;;;;;5.24;100.00;93225.50;7398779;19;20381;-87
2024/01/18 05:49:58;;;;;;;89.70;11.50;;;;;;;4.58;100.00;93145.78;7399305;19;20854;-87
2024/01/18 05:52:41;;;;;;;9.90;4.73;;;;;;;4.96;100.00;93217.84;7398567;19;20392;-87
2024/01/18 05:55:25;;;;;;;37.07;5.63;;;;;;;4.53;100.00;93164.97;7399146;19;20834;-87
2024/01/18 05:58:08;;;;;;;5.50;4.20;;;;;;;5.33;100.00;93283.25;7398848;19;20388;-87
2024/01/18 06:00:52;;;;;;;5.90;4.33;;;;;;;4.44;100.00;93162.56;7399573;19;20372;-87
2024/01/18 06:03:35;;;;;;;7.53;4.43;;;;;;;4.92;100.00;93248.22;7397605;19;20392;-87
2024/01/18 06:06:19;;;;;;;5.50;3.13;;;;;;;4.87;100.00;93271.84;7398635;19;20873;-89
2024/01/18 06:09:02;;;;;;;4.90;3.83;;;;;;;4.82;100.00;93266.91;7399397;19;20360;-88
2024/01/18 06:11:46;;;;;;;4.37;3.93;;;;;;;4.79;100.00;93265.72;7397791;19;20733;-89
2024/01/18 06:14:30;;;;;;;10.60;3.50;;;;;;;4.82;100.00;93259.84;7398755;19;20444;-89
2024/01/18 06:17:14;;;;;;;4.10;3.43;;;;;;;4.81;100.00;93255.75;7399029;19;20364;-89
2024/01/18 06:19:57;;;;;;;36.70;7.40;;;;;;;4.65;100.00;93244.63;7397900;19;20419;-89
2024/01/18 06:22:41;;;;;;;56.70;10.20;;;;;;;4.74;100.00;93256.34;7398830;19;20735;-89
2024/01/18 06:25:25;;;;;;;926.07;116.73;;;;;;;4.75;100.00;93247.44;7399010;19;20689;-89
2024/01/18 06:28:10;;;;;;;401.90;41.20;;;;;;;4.64;100.00;93236.09;7397155;19;20387;-89
2024/01/18 06:30:53;;;;;;;96.13;16.70;;;;;;;4.83;100.00;93247.63;7398459;19;20377;-89
2024/01/18 06:33:37;;;;;;;48.53;10.60;;;;;;;4.71;100.00;93253.66;7397104;19;20400;-89
2024/01/18 06:36:22;;;;;;;41.53;8.83;;;;;;;4.61;100.00;93249.72;7398301;19;20365;-89
2024/01/18 06:39:05;;;;;;;50.07;9.20;;;;;;;4.87;100.00;93251.03;7397338;19;20365;-86
2024/01/18 06:41:49;;;;;;;43.27;9.43;;;;;;;5.16;100.00;93255.00;7396410;19;20377;-88
2024/01/18 06:44:38;;;;;;;20.93;8.00;;;;;;;4.97;100.00;93247.94;7397467;19;20364;-88
2024/01/18 06:47:21;;;;;;;11.43;6.30;;;;;;;4.84;100.00;93255.06;7397009;19;20382;-89
2024/01/18 06:50:07;;;;;;;67.10;11.47;;;;;;;4.53;100.00;93249.91;7397912;19;20369;-88
2024/01/18 06:52:51;;;;;;;62.93;12.27;;;;;;;4.52;100.00;93261.38;7396717;19;20388;-88
2024/01/18 06:55:34;;;;;;;23.63;5.70;;;;;;;4.56;100.00;93259.63;7397471;19;20360;-88
2024/01/18 06:58:18;;;;;;;11.20;5.33;;;;;;;4.52;100.00;93256.19;7397362;19;20873;-88
2024/01/18 07:01:01;;;;;;;46.93;7.87;;;;;;;4.44;100.00;93256.00;7397617;19;20372;-88
2024/01/18 07:03:45;;;;;;;55.23;19.77;;;;;;;4.43;100.00;93244.13;7395781;19;20908;-88
2024/01/18 07:06:29;;;;;;;43.07;17.70;;;;;;;4.41;100.00;93248.91;7397478;19;20385;-88
2024/01/18 07:09:12;;;;;;;24.73;11.57;;;;;;;4.42;100.00;93244.47;7397112;19;20392;-88
2024/01/18 07:11:56;;;;;;;15.00;10.17;;;;;;;3.78;100.00;93149.50;7396776;19;20360;-88
2024/01/18 07:14:39;;;;;;;30.10;12.97;;;;;;;4.35;100.00;93239.84;7397413;19;20356;-88
2024/01/18 07:17:23;;;;;;;36.30;12.03;;;;;;;4.37;100.00;93244.72;7397261;19;20377;-88
2024/01/18 07:20:09;;;;;;;46.63;14.00;;;;;;;4.33;100.00;93246.47;7395624;19;20400;-86
2024/01/18 07:22:53;;;;;;;24.97;12.30;;;;;;;4.38;100.00;93248.81;7396309;19;20822;-88
2024/01/18 07:25:36;;;;;;;20.97;11.83;;;;;;;4.41;100.00;93246.31;7404156;19;20367;-88
2024/01/18 07:28:20;;;;;;;37.53;13.07;;;;;;;4.32;100.00;93244.94;7401847;19;20405;-88
2024/01/18 07:31:04;;;;;;;22.13;11.23;;;;;;;4.35;100.00;93247.63;7403908;19;20367;-88
2024/01/18 07:33:50;;;;;;;20.33;10.63;;;;;;;4.34;100.00;93243.53;7401757;19;20400;-88
2024/01/18 07:36:33;;;;;;;11.83;8.20;;;;;;;4.38;100.00;93252.16;7404062;19;20379;-88
2024/01/18 07:39:17;;;;;;;17.33;11.73;;;;;;;4.41;100.00;93243.72;7404188;19;20452;-88
2024/01/18 07:42:00;;;;;;;13.93;10.13;;;;;;;4.43;100.00;93244.13;7403609;19;20887;-88
2024/01/18 07:44:46;;;;;;;8.40;7.60;;;;;;;3.98;100.00;93179.66;7403958;19;20364;-88
2024/01/18 07:47:29;;;;;;;7.53;6.27;;;;;;;4.32;100.00;93242.34;7402181;19;20368;-88
2024/01/18 07:50:13;;;;;;;12.27;7.67;;;;;;;4.27;100.00;93247.81;7403806;19;20375;-88
2024/01/18 07:52:56;;;;;;;5.70;5.10;;;;;;;4.39;100.00;93245.13;7402563;19;20402;-88
2024/01/18 07:55:40;;;;;;;5.37;4.80;;;;;;;3.81;100.00;93172.91;7403599;19;20382;-87
2024/01/18 07:58:24;;;;;;;5.83;5.13;;;;;;;4.28;100.00;93244.88;7403406;19;20371;-88
2024/01/18 08:01:08;;;;;;;6.30;5.80;;;;;;;3.98;100.00;93252.28;7403042;19;20365;-88
2024/01/18 08:03:51;;;;;;;5.30;4.80;;;;;;;3.97;100.00;93263.00;7400819;19;20956;-88
2024/01/18 08:06:34;;;;;;;5.50;5.10;;;;;;;3.82;100.00;93251.47;7402383;19;20368;-87
2024/01/18 08:09:18;;;;;;;5.30;4.80;;;;;;;3.83;100.00;93252.97;7403045;19;20369;-87
2024/01/18 08:12:01;;;;;;;5.00;4.57;;;;;;;3.86;100.00;93260.88;7402407;19;20360;-87
2024/01/18 08:14:45;;;;;;;4.10;3.80;;;;;;;3.53;100.00;93229.22;7402786;19;20369;-87
2024/01/18 08:17:28;;;;;;;4.97;4.57;;;;;;;3.69;100.00;93268.91;7402291;19;20404;-87
2024/01/18 08:20:13;;;;;;;4.67;4.27;;;;;;;3.72;100.00;93275.28;7401271;19;20757;-87
2024/01/18 08:22:56;;;;;;;4.50;4.20;;;;;;;3.72;100.00;93298.63;7401003;19;20396;-87
2024/01/18 08:25:40;;;;;;;17.27;11.80;;;;;;;3.73;100.00;93308.69;7402154;19;20374;-87
2024/01/18 08:28:23;;;;;;;18.53;11.53;;;;;;;3.83;100.00;93312.63;7400139;19;20376;-87
2024/01/18 08:31:08;;;;;;;11.47;9.70;;;;;;;3.86;100.00;93302.38;7402446;19;20371;-88
2024/01/18 08:33:51;;;;;;;5.97;5.47;;;;;;;3.79;100.00;93294.38;7399854;19;20400;-87
2024/01/18 08:36:36;;;;;;;6.10;5.43;;;;;;;3.74;100.00;93292.03;7400551;19;20679;-87
2024/01/18 08:39:20;;;;;;;6.10;5.60;;;;;;;3.69;100.00;93300.03;7401772;19;20361;-88
2024/01/18 08:42:03;;;;;;;6.77;6.17;;;;;;;3.67;100.00;93297.00;7401330;19;20368;-88
2024/01/18 08:44:47;;;;;;;6.70;6.10;;;;;;;3.59;100.00;93297.91;7401610;19;20844;-88
2024/01/18 08:47:32;;;;;;;8.90;6.40;;;;;;;3.65;100.00;93313.97;7400087;19;20372;-88
2024/01/18 08:50:15;;;;;;;5.20;4.70;;;;;;;3.62;100.00;93323.19;7401682;19;20376;-87
2024/01/18 08:52:59;;;;;;;5.53;4.77;;;;;;;3.42;100.00;93305.91;7400211;19;20897;-88
2024/01/18 08:55:42;;;;;;;4.10;3.53;;;;;;;3.40;100.00;93319.22;7401360;19;20372;-88
2024/01/18 08:58:26;;;;;;;4.40;4.00;;;;;;;3.46;100.00;93324.94;7401410;19;20365;-87
2024/01/18 09:01:10;;;;;;;3.90;3.60;;;;;;;3.38;100.00;93325.81;7401424;19;20377;-88
2024/01/18 09:03:53;;;;;;;3.90;3.60;;;;;;;3.41;100.00;93328.50;7399486;19;20407;-87
2024/01/18 09:06:37;;;;;;;4.60;3.97;;;;;;;3.40;100.00;93324.41;7400364;19;20394;-88
2024/01/18 09:09:21;;;;;;;4.33;3.93;;;;;;;3.44;100.00;93330.47;7400760;19;20870;-87
2024/01/18 09:12:06;;;;;;;3.50;3.20;;;;;;;3.43;100.00;93338.53;7400686;19;20372;-88
2024/01/18 09:14:50;;;;;;;3.57;3.27;;;;;;;3.38;100.00;93331.00;7400638;19;20915;-88
2024/01/18 09:17:33;;;;;;;3.70;3.40;;;;;;;3.32;100.00;93335.66;7400446;19;20689;-87
2024/01/18 09:20:17;;;;;;;4.03;3.60;;;;;;;3.35;100.00;93342.00;7399192;19;20475;-88
2024/01/18 09:23:00;;;;;;;4.30;3.90;;;;;;;3.38;100.00;93346.53;7399429;19;20403;-88
2024/01/18 09:25:44;;;;;;;4.00;3.40;;;;;;;3.33;100.00;93333.81;7400383;19;20378;-88
2024/01/18 09:28:27;;;;;;;4.33;3.93;;;;;;;3.28;100.00;93343.31;7398656;19;20452;-88
2024/01/18 09:31:12;;;;;;;4.80;3.97;;;;;;;3.29;100.00;93355.19;7400042;19;20375;-88
2024/01/18 09:33:56;;;;;;;4.00;3.70;;;;;;;3.22;100.00;93354.97;7398752;19;20408;-87
2024/01/18 09:36:40;;;;;;;4.10;3.67;;;;;;;3.22;100.00;93352.38;7400177;19;20389;-88
2024/01/18 09:39:23;;;;;;;4.63;4.33;;;;;;;3.28;100.00;93351.06;7399753;19;20360;-88
2024/01/18 09:42:13;;;;;;;4.83;4.43;;;;;;;3.30;100.00;93351.53;7399411;19;20861;-87
2024/01/18 09:45:17;;;;;;;4.30;3.83;;;;;;;3.34;100.00;93348.28;7399614;19;20392;-88
2024/01/18 09:48:03;;;;;;;4.90;4.50;;;;;;;3.25;100.00;93358.75;7398281;19;20368;-88
2024/01/18 09:50:48;;;;;;;4.43;4.13;;;;;;;3.22;100.00;93354.22;7399307;19;20360;-88
2024/01/18 09:53:32;;;;;;;4.50;4.10;;;;;;;3.21;100.00;93358.66;7398351;19;20488;-87
2024/01/18 09:56:29;;;;;;;5.70;5.20;;;;;;;3.25;100.00;93366.53;7399608;19;20368;-88
2024/01/18 09:59:17;;;;;;;5.00;4.60;;;;;;;3.31;100.00;93365.25;7398970;19;20830;-88
2024/01/18 10:02:02;;;;;;;7.07;4.83;;;;;;;3.26;100.00;93378.41;7399255;19;20802;-87
2024/01/18 10:04:47;;;;;;;5.20;4.80;;;;;;;3.25;100.00;93375.06;7398593;19;20400;-87
2024/01/18 10:07:30;;;;;;;4.63;4.13;;;;;;;3.15;100.00;93364.34;7398116;19;20389;-87
2024/01/18 10:10:15;;;;;;;5.17;4.77;;;;;;;3.12;100.00;93383.16;7399096;19;20384;-88
2024/01/18 10:13:01;;;;;;;8.20;5.57;;;;;;;3.10;100.00;93386.06;7397936;19;20405;-87
2024/01/18 10:15:45;;;;;;;15.77;11.77;;;;;;;2.91;100.00;93360.69;7398869;19;20364;-87
2024/01/18 10:18:28;;;;;;;22.70;16.20;;;;;;;3.09;100.00;93383.78;7398865;19;20364;-87
2024/01/18 10:21:12;;;;;;;10.90;8.70;;;;;;;3.02;100.00;93384.31;7396780;19;20711;-88
2024/01/18 10:23:56;;;;;;;8.57;5.77;;;;;;;2.95;100.00;93384.88;7397063;19;20412;-88
2024/01/18 10:26:40;;;;;;;6.97;6.10;;;;;;;3.00;100.00;93391.66;7397887;19;20869;-88
2024/01/18 10:29:24;;;;;;;6.63;5.90;;;;;;;2.99;100.00;93390.16;7398322;19;20384;-87
2024/01/18 10:32:08;;;;;;;7.70;6.53;;;;;;;3.02;100.00;93386.91;7398260;19;20365;-87
2024/01/18 10:34:53;;;;;;;5.90;5.30;;;;;;;3.01;100.00;93380.22;7397894;19;20388;-87
2024/01/18 10:37:37;;;;;;;6.57;5.97;;;;;;;2.95;100.00;93392.63;7397768;19;20376;-88
2024/01/18 10:40:21;;;;;;;6.47;5.83;;;;;;;2.93;100.00;93389.63;7398233;19;20393;-87
2024/01/18 10:43:07;;;;;;;6.20;5.70;;;;;;;2.95;100.00;93397.06;7396329;19;20415;-87
2024/01/18 10:45:52;;;;;;;6.80;6.17;;;;;;;2.88;100.00;93397.56;7397540;19;20865;-86
2024/01/18 10:48:36;;;;;;;7.60;6.20;;;;;;;2.77;100.00;93398.31;7396157;19;20384;-87
2024/01/18 10:51:19;;;;;;;7.03;6.20;;;;;;;2.68;100.00;93398.41;7397496;19;20360;-86
2024/01/18 10:54:06;;;;;;;8.13;6.70;;;;;;;2.77;100.00;93390.56;7396257;19;20404;-87
2024/01/18 10:56:49;;;;;;;9.40;7.03;;;;;;;2.69;100.00;93389.56;7397360;19;20364;-87
2024/01/18 10:59:33;;;;;;;10.20;8.00;;;;;;;2.63;100.00;93385.66;7402599;19;20373;-87
2024/01/18 11:02:17;;;;;;;12.00;9.20;;;;;;;2.64;100.00;93382.00;7404584;19;20415;-89
2024/01/18 11:05:02;;;;;;;9.27;7.70;;;;;;;2.68;100.00;93396.56;7404898;19;20364;-87
2024/01/18 11:07:47;;;;;;;6.43;5.77;;;;;;;2.64;100.00;93408.66;7403085;19;20375;-87
2024/01/18 11:10:32;;;;;;;12.03;8.53;;;;;;;2.61;100.00;93419.63;7404757;19;20364;-87
2024/01/18 11:13:16;;;;;;;12.63;8.93;;;;;;;2.53;100.00;93412.72;7403495;19;20392;-87
2024/01/18 11:16:00;;;;;;;9.60;7.97;;;;;;;2.44;100.00;93419.78;7405098;19;20369;-90
2024/01/18 11:18:50;;;;;;;14.13;10.30;;;;;;;2.47;100.00;93410.63;7404423;19;20432;-87
2024/01/18 11:21:43;;;;;;;15.87;11.13;;;;;;;2.41;100.00;93425.59;7404772;19;20368;-87
2024/01/18 11:24:27;;;;;;;8.83;6.73;;;;;;;2.34;100.00;93422.75;7404847;19;20681;-87
2024/01/18 11:27:25;;;;;;;11.23;8.33;;;;;;;2.38;100.00;93429.59;7403411;19;20384;-87
2024/01/18 11:30:34;;;;;;;15.30;10.53;;;;;;;2.26;100.00;93426.94;7404543;19;20361;-87
2024/01/18 11:33:18;;;;;;;10.87;8.60;;;;;;;2.37;100.00;93422.16;7402362;19;20403;-87
2024/01/18 11:36:02;;;;;;;14.07;10.80;;;;;;;2.33;100.00;93434.19;7403972;19;20361;-87
2024/01/18 11:38:46;;;;;;;12.03;9.87;;;;;;;2.25;100.00;93435.78;7404394;19;20368;-87
2024/01/18 11:41:32;;;;;;;12.37;10.57;;;;;;;2.30;100.00;93434.81;7403977;19;20367;-88
2024/01/18 11:44:16;;;;;;;12.23;9.93;;;;;;;2.29;100.00;93438.50;7401543;19;20408;-87
2024/01/18 11:46:59;;;;;;;19.67;13.30;;;;;;;2.18;100.00;93442.53;7403173;19;20381;-87
2024/01/18 11:49:43;;;;;;;11.47;7.83;;;;;;;2.11;100.00;93451.56;7403900;19;20375;-90
2024/01/18 11:52:27;;;;;;;16.13;11.40;;;;;;;2.15;100.00;93450.94;7402873;19;20909;-88
2024/01/18 11:55:17;;;;;;;19.40;12.30;;;;;;;2.07;100.00;93462.84;7403688;19;20400;-89
2024/01/18 11:58:02;;;;;;;13.13;10.67;;;;;;;1.92;100.00;93471.16;7403528;19;20436;-90
2024/01/18 12:00:46;;;;;;;16.10;11.10;;;;;;;1.90;100.00;93486.22;7403280;19;20361;-88
2024/01/18 12:03:30;;;;;;;16.20;11.30;;;;;;;1.81;100.00;93496.59;7401780;19;20427;-88
2024/01/18 12:06:14;;;;;;;15.97;11.80;;;;;;;1.81;100.00;93505.13;7403389;19;20432;-90
2024/01/18 12:08:58;;;;;;;16.03;11.60;;;;;;;1.60;100.00;93506.16;7403475;19;20393;-90
2024/01/18 12:11:42;;;;;;;18.83;11.53;;;;;;;1.61;100.00;93512.81;7401342;19;20388;-91
2024/01/18 12:14:26;;;;;;;15.73;12.20;;;;;;;1.47;100.00;93531.13;7403264;19;20372;-91
2024/01/18 12:17:11;;;;;;;15.93;10.67;;;;;;;1.37;100.00;93531.44;7402982;19;20436;-94
2024/01/18 12:19:55;;;;;;;15.93;11.77;;;;;;;1.48;100.00;93537.81;7401623;19;20408;-90
2024/01/18 12:22:38;;;;;;;12.97;8.57;;;;;;;1.43;100.00;93523.25;7401986;19;20732;-90
2024/01/18 12:25:21;;;;;;;16.00;11.00;;;;;;;1.37;100.00;93534.03;7402274;19;20356;-90
2024/01/18 12:28:07;;;;;;;17.73;10.30;;;;;;;1.09;100.00;93515.56;7400832;19;20388;-91
2024/01/18 12:30:50;;;;;;;13.23;10.43;;;;;;;1.30;100.00;93536.34;7402594;19;20872;-90
2024/01/18 12:33:35;;;;;;;15.33;10.07;;;;;;;1.26;100.00;93554.25;7400519;19;20399;-90
2024/01/18 12:36:18;;;;;;;14.67;9.20;;;;;;;1.12;100.00;93544.13;7402552;19;20371;-90
2024/01/18 12:39:02;;;;;;;11.13;8.60;;;;;;;1.04;100.00;93562.22;7402543;19;20368;-90
2024/01/18 12:41:50;;;;;;;13.67;9.83;;;;;;;1.01;100.00;93560.22;7402272;19;20380;-90
2024/01/18 12:44:33;;;;;;;19.80;12.80;;;;;;;0.94;100.00;93563.28;7401685;19;20357;-91
2024/01/18 12:47:17;;;;;;;17.20;12.40;;;;;;;1.10;100.00;93568.72;7400703;19;20369;-90